Time;durP1;ratioP1;P1;durP2;ratioP2;P2;SDS_P1;SDS_P2;PMS_P1;PMS_P2;Temp;Humidity;BMP_temperature;BMP_pressure;BME280_temperature;BME280_humidity;BME280_pressure;Samples;Min_cycle;Max_cycle;Signal;HPM_P1;HPM_P2
2023/06/14 00:01:02;;;;;;;0.00;0.00;;;;;;;16.50;39.13;98116.88;4976518;28;20239;-64
2023/06/14 00:03:31;;;;;;;0.00;0.00;;;;;;;16.42;39.45;98128.44;4980471;28;20241;-65
2023/06/14 00:05:58;;;;;;;0.00;0.00;;;;;;;16.32;39.50;98120.91;4972834;28;20232;-65
2023/06/14 00:08:25;;;;;;;0.00;0.00;;;;;;;16.21;40.15;98124.97;4987232;28;20793;-65
2023/06/14 00:10:52;;;;;;;0.00;0.00;;;;;;;16.16;39.76;98126.53;4970697;28;20232;-65
2023/06/14 00:13:18;;;;;;;0.00;0.00;;;;;;;16.12;40.11;98117.41;4982510;28;20709;-65
2023/06/14 00:15:46;;;;;;;0.00;0.00;;;;;;;15.97;41.68;98121.03;4988292;28;20804;-65
2023/06/14 00:18:12;;;;;;;0.00;0.00;;;;;;;15.83;42.03;98119.38;4988796;28;20701;-65
2023/06/14 00:20:42;;;;;;;0.00;0.00;;;;;;;15.69;42.83;98119.31;4988478;28;20300;-65
2023/06/14 00:23:09;;;;;;;0.00;0.00;;;;;;;15.58;42.76;98110.13;4989105;28;20777;-66
2023/06/14 00:25:35;;;;;;;0.00;0.00;;;;;;;15.55;42.02;98107.91;4989855;28;20271;-65
2023/06/14 00:28:02;;;;;;;0.00;0.00;;;;;;;15.46;43.73;98106.44;4990009;28;20704;-65
2023/06/14 00:30:30;;;;;;;0.00;0.00;;;;;;;15.38;43.74;98111.84;4990431;28;20241;-65
2023/06/14 00:32:57;;;;;;;0.00;0.00;;;;;;;15.28;43.46;98101.72;4986456;28;20667;-65
2023/06/14 00:35:26;;;;;;;0.00;0.00;;;;;;;15.19;43.52;98109.75;4991011;28;20243;-65
2023/06/14 00:37:54;;;;;;;0.00;0.00;;;;;;;15.09;44.90;98108.47;4971468;28;20225;-65
2023/06/14 00:40:21;;;;;;;0.00;0.00;;;;;;;15.01;45.52;98101.53;4989663;28;20231;-65
2023/06/14 00:42:48;;;;;;;0.00;0.00;;;;;;;14.86;45.03;98107.72;4953393;28;20232;-65
2023/06/14 00:45:14;;;;;;;0.00;0.00;;;;;;;14.71;45.99;98107.00;4991276;28;20225;-66
2023/06/14 00:47:42;;;;;;;0.00;0.00;;;;;;;14.56;46.26;98105.25;4971025;28;20231;-65
2023/06/14 00:50:11;;;;;;;0.00;0.00;;;;;;;14.51;47.60;98109.44;4974972;28;20287;-66
2023/06/14 00:52:37;;;;;;;0.00;0.00;;;;;;;14.36;46.60;98110.31;4971352;28;20582;-65
2023/06/14 00:55:07;;;;;;;0.00;0.00;;;;;;;14.31;46.60;98112.69;4970183;28;20252;-65
2023/06/14 00:57:37;;;;;;;0.00;0.00;;;;;;;14.30;46.71;98106.63;4970662;28;20223;-65
2023/06/14 01:00:08;;;;;;;0.00;0.00;;;;;;;14.20;47.41;98106.13;4973802;28;20696;-65
2023/06/14 01:02:36;;;;;;;0.00;0.00;;;;;;;14.18;47.33;98100.25;4986856;28;20292;-65
2023/06/14 01:05:03;;;;;;;0.00;0.00;;;;;;;14.16;47.09;98105.69;4990891;28;20231;-65
2023/06/14 01:07:40;;;;;;;0.00;0.00;;;;;;;14.24;48.35;98102.13;4990866;28;20238;-65
2023/06/14 01:10:22;;;;;;;0.00;0.00;;;;;;;14.20;47.41;98100.88;4990378;28;20297;-65
2023/06/14 01:12:56;;;;;;;0.00;0.00;;;;;;;14.09;47.14;98104.00;4990231;28;20237;-65
2023/06/14 01:15:24;;;;;;;0.00;0.00;;;;;;;14.13;48.44;98106.06;4986284;28;20593;-65
2023/06/14 01:17:53;;;;;;;0.00;0.00;;;;;;;14.01;48.56;98108.34;4968269;28;20787;-65
2023/06/14 01:20:21;;;;;;;0.00;0.00;;;;;;;13.99;47.86;98107.72;4991337;28;20704;-65
2023/06/14 01:22:53;;;;;;;0.00;0.00;;;;;;;13.96;48.29;98104.69;4969919;28;20284;-65
2023/06/14 01:25:22;;;;;;;0.00;0.00;;;;;;;14.04;48.08;98107.19;4988576;28;20279;-65
2023/06/14 01:27:50;;;;;;;0.00;0.00;;;;;;;14.12;47.78;98111.50;4969307;28;20227;-65
2023/06/14 01:30:18;;;;;;;0.00;0.00;;;;;;;14.13;47.80;98111.31;4976177;28;20817;-65
2023/06/14 01:32:48;;;;;;;0.00;0.00;;;;;;;14.26;46.42;98101.97;4967678;28;20714;-65
2023/06/14 01:35:14;;;;;;;0.00;0.00;;;;;;;14.37;45.49;98113.75;4972362;28;20301;-65
2023/06/14 01:37:42;;;;;;;0.00;0.00;;;;;;;14.45;44.71;98105.75;4989543;28;20275;-65
2023/06/14 01:40:12;;;;;;;0.00;0.00;;;;;;;14.45;47.13;98103.94;4970657;28;20259;-65
2023/06/14 01:42:40;;;;;;;0.00;0.00;;;;;;;14.41;46.25;98109.75;4969479;28;20235;-65
2023/06/14 01:45:09;;;;;;;0.00;0.00;;;;;;;14.26;48.70;98108.00;4959301;28;20295;-64
2023/06/14 01:47:36;;;;;;;0.00;0.00;;;;;;;14.18;47.92;98110.75;4988024;28;20263;-64
2023/06/14 01:50:04;;;;;;;0.00;0.00;;;;;;;14.14;48.30;98112.13;4991501;28;20229;-64
2023/06/14 01:52:31;;;;;;;0.00;0.00;;;;;;;14.04;48.01;98112.44;4971335;28;20238;-64
2023/06/14 01:54:58;;;;;;;0.00;0.00;;;;;;;14.05;47.20;98108.81;4969324;28;20235;-64
2023/06/14 01:57:27;;;;;;;0.00;0.00;;;;;;;13.99;46.72;98110.34;4973804;28;20236;-64
2023/06/14 01:59:53;;;;;;;0.00;0.00;;;;;;;13.98;47.82;98103.47;4974342;28;20222;-64
2023/06/14 02:02:20;;;;;;;0.00;0.00;;;;;;;13.96;46.57;98107.31;4991294;28;20245;-64
2023/06/14 02:04:47;;;;;;;0.00;0.00;;;;;;;13.99;46.46;98105.09;4970772;28;20234;-64
2023/06/14 02:07:14;;;;;;;0.00;0.00;;;;;;;14.01;46.76;98108.34;4972214;28;20646;-64
2023/06/14 02:09:42;;;;;;;0.00;0.00;;;;;;;14.09;45.95;98109.25;4967763;28;20253;-64
2023/06/14 02:12:10;;;;;;;0.00;0.00;;;;;;;14.16;46.00;98108.31;4973163;28;20226;-64
2023/06/14 02:14:38;;;;;;;0.00;0.00;;;;;;;14.23;45.05;98112.84;4977946;28;20241;-64
2023/06/14 02:17:06;;;;;;;0.00;0.00;;;;;;;14.30;45.17;98104.00;4971277;28;20345;-64
2023/06/14 02:19:33;;;;;;;0.00;0.00;;;;;;;14.35;45.30;98107.88;4985950;28;20227;-64
2023/06/14 02:22:00;;;;;;;0.00;0.00;;;;;;;14.38;45.04;98112.75;4970853;28;20236;-64
2023/06/14 02:24:26;;;;;;;0.00;0.00;;;;;;;14.37;45.58;98117.19;4972034;28;20230;-64
2023/06/14 02:26:53;;;;;;;0.00;0.00;;;;;;;14.36;45.10;98112.13;4969233;28;20295;-64
2023/06/14 02:29:20;;;;;;;0.00;0.00;;;;;;;14.37;44.38;98104.06;4971429;28;21151;-64
2023/06/14 02:31:49;;;;;;;0.00;0.00;;;;;;;14.46;44.78;98110.81;4987494;28;20630;-64
2023/06/14 02:34:16;;;;;;;0.00;0.00;;;;;;;14.37;45.03;98106.69;4971430;28;20289;-64
2023/06/14 02:36:45;;;;;;;0.00;0.00;;;;;;;14.29;45.25;98102.38;4987837;28;20317;-64
2023/06/14 02:39:12;;;;;;;0.00;0.00;;;;;;;14.30;44.89;98104.00;4991112;28;20605;-64
2023/06/14 02:41:39;;;;;;;0.00;0.00;;;;;;;14.31;45.72;98116.13;4968389;28;20703;-64
2023/06/14 02:44:05;;;;;;;0.00;0.00;;;;;;;14.25;46.06;98109.00;4975469;28;20243;-64
2023/06/14 02:46:32;;;;;;;0.00;0.00;;;;;;;14.14;46.74;98110.31;4972257;28;20240;-64
2023/06/14 02:49:00;;;;;;;0.00;0.00;;;;;;;14.15;46.16;98109.31;4961696;28;20813;-64
2023/06/14 02:51:27;;;;;;;0.00;0.00;;;;;;;14.03;47.41;98111.59;4979929;28;20236;-64
2023/06/14 02:53:57;;;;;;;0.00;0.00;;;;;;;13.97;48.72;98101.06;4989787;28;20231;-64
2023/06/14 02:56:25;;;;;;;0.00;0.00;;;;;;;13.80;48.42;98110.94;4964485;28;20230;-64
2023/06/14 02:58:58;;;;;;;0.00;0.00;;;;;;;13.71;49.11;98113.69;4968722;28;21025;-64
2023/06/14 03:01:33;;;;;;;0.00;0.00;;;;;;;13.66;49.76;98118.69;4993363;28;20262;-64
2023/06/14 03:04:03;;;;;;;0.00;0.00;;;;;;;13.49;49.14;98102.31;4990625;28;20236;-64
2023/06/14 03:06:30;;;;;;;0.00;0.00;;;;;;;13.51;49.86;98113.44;4976952;28;20231;-64
2023/06/14 03:08:59;;;;;;;0.00;0.00;;;;;;;13.50;50.16;98111.00;4992825;28;20258;-64
2023/06/14 03:11:27;;;;;;;0.00;0.00;;;;;;;13.47;48.41;98114.78;4978035;28;20230;-64
2023/06/14 03:13:57;;;;;;;0.00;0.00;;;;;;;13.38;49.37;98113.22;4974899;28;20234;-64
2023/06/14 03:16:29;;;;;;;0.00;0.00;;;;;;;13.33;48.62;98119.03;4976059;28;20594;-64
2023/06/14 03:18:57;;;;;;;0.00;0.00;;;;;;;13.24;48.95;98122.72;4988456;28;20652;-64
2023/06/14 03:21:28;;;;;;;0.00;0.00;;;;;;;13.24;50.09;98120.94;4974703;28;20235;-64
2023/06/14 03:23:59;;;;;;;0.00;0.00;;;;;;;13.20;50.33;98119.66;4971173;28;20766;-64
2023/06/14 03:26:26;;;;;;;0.00;0.00;;;;;;;13.21;51.66;98133.56;4993018;28;20239;-64
2023/06/14 03:28:57;;;;;;;0.00;0.00;;;;;;;13.18;50.86;98131.31;4973910;28;20234;-65
2023/06/14 03:31:24;;;;;;;0.00;0.00;;;;;;;13.13;50.93;98135.28;5204349;23;20235;-65
2023/06/14 03:33:56;;;;;;;0.00;0.00;;;;;;;13.05;51.61;98132.75;4982223;28;20238;-65
2023/06/14 03:36:24;;;;;;;0.00;0.00;;;;;;;13.06;51.78;98136.19;4987461;28;20226;-65
2023/06/14 03:38:58;;;;;;;0.00;0.00;;;;;;;12.94;52.19;98134.00;4984381;28;20238;-65
2023/06/14 03:41:26;;;;;;;0.00;0.00;;;;;;;12.91;53.75;98144.00;4986968;28;20235;-65
2023/06/14 03:43:57;;;;;;;0.00;0.00;;;;;;;12.87;53.93;98150.59;4984955;28;20321;-65
2023/06/14 03:46:23;;;;;;;0.00;0.00;;;;;;;12.84;54.08;98142.09;4986924;28;20238;-64
2023/06/14 03:49:17;;;;;;;0.00;0.00;;;;;;;12.82;53.62;98140.66;4980637;28;20229;-64
2023/06/14 03:51:50;;;;;;;0.00;0.00;;;;;;;12.76;53.71;98160.50;4983346;28;20239;-64
2023/06/14 03:54:19;;;;;;;0.00;0.00;;;;;;;12.70;53.69;98153.38;4987169;28;20317;-64
2023/06/14 03:56:46;;;;;;;0.00;0.00;;;;;;;12.73;54.38;98155.59;4983204;28;20229;-65
2023/06/14 03:59:13;;;;;;;0.00;0.00;;;;;;;12.71;54.78;98160.25;4986677;28;20305;-64
2023/06/14 04:01:45;;;;;;;0.00;0.00;;;;;;;12.73;53.79;98162.66;4983459;28;20601;-64
2023/06/14 04:04:16;;;;;;;0.00;0.00;;;;;;;12.72;53.52;98161.03;4985860;28;20269;-64
2023/06/14 04:06:42;;;;;;;0.00;0.00;;;;;;;12.66;54.47;98166.00;4984505;28;20238;-64
2023/06/14 04:09:11;;;;;;;0.00;0.00;;;;;;;12.66;56.05;98166.00;4986540;28;20230;-64
2023/06/14 04:11:38;;;;;;;0.00;0.00;;;;;;;12.64;55.12;98164.56;4983304;28;20227;-64
2023/06/14 04:14:06;;;;;;;0.00;0.00;;;;;;;12.63;55.41;98168.16;4985620;28;20236;-64
2023/06/14 04:16:33;;;;;;;0.00;0.00;;;;;;;12.66;56.32;98171.22;4972903;28;20237;-64
2023/06/14 04:19:01;;;;;;;0.00;0.00;;;;;;;12.70;57.51;98161.22;4986078;28;20234;-64
2023/06/14 04:21:29;;;;;;;0.00;0.00;;;;;;;12.76;56.06;98170.97;4985364;28;20232;-64
2023/06/14 04:24:01;;;;;;;0.00;0.00;;;;;;;12.79;55.97;98173.25;4982127;28;20239;-64
2023/06/14 04:26:29;;;;;;;0.00;0.00;;;;;;;12.77;56.51;98177.03;4985527;28;21217;-64
2023/06/14 04:29:01;;;;;;;0.00;0.00;;;;;;;12.80;55.28;98176.69;4981860;28;20239;-64
2023/06/14 04:31:29;;;;;;;0.00;0.00;;;;;;;12.90;56.62;98182.50;4985977;28;20290;-64
2023/06/14 04:33:59;;;;;;;0.00;0.00;;;;;;;12.99;57.45;98183.22;4982856;28;20239;-64
2023/06/14 04:36:27;;;;;;;0.00;0.00;;;;;;;12.98;57.21;98182.44;4984424;28;20621;-64
2023/06/14 04:38:56;;;;;;;0.00;0.00;;;;;;;13.04;56.44;98193.19;4982762;28;20598;-64
2023/06/14 04:41:30;;;;;;;0.00;0.00;;;;;;;13.14;57.21;98189.31;4985822;28;20241;-64
2023/06/14 04:44:01;;;;;;;0.00;0.00;;;;;;;13.14;56.56;98186.69;4982984;28;20243;-64
2023/06/14 04:46:30;;;;;;;0.00;0.00;;;;;;;13.19;58.35;98198.44;4984636;28;20249;-64
2023/06/14 04:48:57;;;;;;;0.00;0.00;;;;;;;13.21;57.11;98197.31;4982719;28;20230;-65
2023/06/14 04:51:29;;;;;;;0.00;0.00;;;;;;;13.22;58.11;98198.09;4985321;28;20798;-65
2023/06/14 04:53:58;;;;;;;0.00;0.00;;;;;;;13.25;58.35;98206.41;4982070;28;20234;-65
2023/06/14 04:56:26;;;;;;;0.00;0.00;;;;;;;13.25;58.72;98203.00;4985169;28;20242;-64
2023/06/14 04:58:58;;;;;;;0.00;0.00;;;;;;;13.30;58.80;98211.13;4968098;28;20748;-64
2023/06/14 05:01:25;;;;;;;0.00;0.00;;;;;;;13.33;57.70;98213.41;4984284;28;20231;-65
2023/06/14 05:03:57;;;;;;;0.00;0.00;;;;;;;13.38;58.96;98218.09;4980905;28;20707;-65
2023/06/14 05:06:24;;;;;;;0.00;0.00;;;;;;;13.43;57.23;98216.59;4983125;28;20226;-65
2023/06/14 05:08:57;;;;;;;0.00;0.00;;;;;;;13.41;58.43;98215.97;4967519;28;20241;-65
2023/06/14 05:11:26;;;;;;;0.00;0.00;;;;;;;13.44;58.00;98217.41;4985827;28;20245;-65
2023/06/14 05:13:58;;;;;;;0.00;0.00;;;;;;;13.50;56.88;98215.88;4979089;28;20236;-65
2023/06/14 05:16:27;;;;;;;0.00;0.00;;;;;;;13.52;57.87;98216.53;4984890;28;20235;-65
2023/06/14 05:18:57;;;;;;;0.00;0.00;;;;;;;13.58;57.43;98213.19;4982357;28;20241;-65
2023/06/14 05:21:25;;;;;;;0.00;0.00;;;;;;;13.60;57.38;98210.38;4986344;28;20239;-65
2023/06/14 05:23:57;;;;;;;0.00;0.00;;;;;;;13.65;57.72;98215.88;4982833;28;20286;-65
2023/06/14 05:26:28;;;;;;;0.00;0.00;;;;;;;13.71;57.58;98210.75;4986322;28;20770;-65
2023/06/14 05:28:57;;;;;;;0.00;0.00;;;;;;;13.76;57.82;98219.88;4983582;28;20238;-65
2023/06/14 05:31:24;;;;;;;0.00;0.00;;;;;;;13.83;57.79;98220.75;4985454;28;20341;-65
2023/06/14 05:34:16;;;;;;;0.00;0.00;;;;;;;13.93;55.98;98223.91;4981819;28;20257;-65
2023/06/14 05:36:43;;;;;;;0.00;0.00;;;;;;;14.02;57.06;98229.91;4981006;28;20305;-65
2023/06/14 05:39:10;;;;;;;0.00;0.00;;;;;;;14.19;57.22;98230.50;4986481;28;20233;-65
2023/06/14 05:41:36;;;;;;;0.00;0.00;;;;;;;14.65;56.33;98229.38;4983768;28;20238;-65
2023/06/14 05:44:03;;;;;;;0.00;0.00;;;;;;;15.14;55.07;98230.44;4986315;28;20235;-65
2023/06/14 05:46:29;;;;;;;0.00;0.00;;;;;;;15.45;54.00;98238.94;4986530;28;20238;-65
2023/06/14 05:48:57;;;;;;;0.00;0.00;;;;;;;15.72;53.56;98239.13;4980610;28;20233;-65
2023/06/14 05:51:26;;;;;;;0.00;0.00;;;;;;;15.91;53.66;98243.72;4986154;28;20727;-65
2023/06/14 05:53:57;;;;;;;0.00;0.00;;;;;;;16.08;54.03;98246.03;4982351;28;20251;-65
2023/06/14 05:56:23;;;;;;;0.00;0.00;;;;;;;16.22;54.10;98244.25;4985813;28;20251;-65
2023/06/14 05:59:15;;;;;;;0.00;0.00;;;;;;;16.40;53.19;98250.81;4981064;28;20611;-65
2023/06/14 06:01:42;;;;;;;0.00;0.00;;;;;;;16.52;52.83;98250.00;4982335;28;20234;-65
2023/06/14 06:04:08;;;;;;;0.00;0.00;;;;;;;16.64;51.81;98258.16;4985154;28;20290;-65
2023/06/14 06:06:36;;;;;;;0.00;0.00;;;;;;;16.73;52.11;98258.78;4981664;28;20223;-65
2023/06/14 06:09:06;;;;;;;0.00;0.00;;;;;;;16.79;50.12;98255.34;4984901;28;20235;-66
2023/06/14 06:11:32;;;;;;;0.00;0.00;;;;;;;16.93;51.00;98266.75;4981084;28;20273;-65
2023/06/14 06:13:59;;;;;;;0.00;0.00;;;;;;;17.00;53.14;98265.94;4984887;28;20676;-65
2023/06/14 06:16:25;;;;;;;0.00;0.00;;;;;;;17.18;52.39;98262.72;4985488;28;20657;-65
2023/06/14 06:18:56;;;;;;;0.00;0.00;;;;;;;17.31;51.59;98262.72;4982602;28;20231;-65
2023/06/14 06:21:23;;;;;;;0.00;0.00;;;;;;;17.35;53.87;98263.94;4984405;28;20236;-65
2023/06/14 06:23:51;;;;;;;0.00;0.00;;;;;;;17.44;52.20;98263.75;4982159;28;20224;-65
2023/06/14 06:26:17;;;;;;;0.00;0.00;;;;;;;17.51;51.82;98265.34;4985817;28;20279;-65
2023/06/14 06:28:44;;;;;;;0.00;0.00;;;;;;;17.68;50.87;98271.00;4982564;28;20640;-65
2023/06/14 06:31:11;;;;;;;0.00;0.00;;;;;;;17.71;50.44;98275.88;4984976;28;20308;-65
2023/06/14 06:33:39;;;;;;;0.00;0.00;;;;;;;17.89;47.90;98276.25;4982619;28;20576;-65
2023/06/14 06:36:06;;;;;;;0.00;0.00;;;;;;;17.96;48.02;98271.78;4984098;28;20314;-65
2023/06/14 06:38:32;;;;;;;0.00;0.00;;;;;;;17.99;46.83;98272.19;4982479;28;20252;-65
2023/06/14 06:41:00;;;;;;;0.00;0.00;;;;;;;18.18;49.67;98272.34;4985220;28;20898;-65
2023/06/14 06:43:27;;;;;;;0.00;0.00;;;;;;;18.35;48.12;98275.31;4984963;28;20228;-65
2023/06/14 06:45:55;;;;;;;0.00;0.00;;;;;;;18.55;47.04;98283.13;4982179;28;20237;-65
2023/06/14 06:48:21;;;;;;;0.00;0.00;;;;;;;18.58;47.87;98292.47;4985237;28;20233;-65
2023/06/14 06:50:48;;;;;;;0.00;0.00;;;;;;;18.65;46.11;98292.44;4982366;28;20236;-66
2023/06/14 06:53:15;;;;;;;0.00;0.00;;;;;;;18.66;46.26;98292.25;4984327;28;20487;-66
2023/06/14 06:55:41;;;;;;;0.00;0.00;;;;;;;18.86;44.27;98294.75;4982524;28;20308;-66
2023/06/14 06:58:09;;;;;;;0.00;0.00;;;;;;;18.92;46.10;98297.56;4984597;28;20221;-66
2023/06/14 07:00:36;;;;;;;0.00;0.00;;;;;;;19.09;46.66;98298.72;4980550;28;20230;-66
2023/06/14 07:03:03;;;;;;;0.00;0.00;;;;;;;19.20;44.21;98297.19;4983354;28;20238;-65
2023/06/14 07:05:30;;;;;;;0.00;0.00;;;;;;;19.39;44.68;98299.91;4983173;28;20735;-66
2023/06/14 07:07:57;;;;;;;0.00;0.00;;;;;;;19.53;45.21;98298.78;4980238;28;20222;-66
2023/06/14 07:10:24;;;;;;;0.00;0.00;;;;;;;19.71;45.05;98305.94;4982974;28;20235;-65
2023/06/14 07:12:50;;;;;;;0.00;0.00;;;;;;;19.77;44.46;98305.06;4982109;28;20230;-65
2023/06/14 07:15:18;;;;;;;0.00;0.00;;;;;;;19.73;43.66;98311.81;4982179;28;20239;-65
2023/06/14 07:17:45;;;;;;;0.00;0.00;;;;;;;19.78;44.86;98311.19;4977836;28;20220;-66
2023/06/14 07:20:13;;;;;;;0.00;0.00;;;;;;;19.96;44.03;98312.25;4981312;28;20238;-66
2023/06/14 07:22:41;;;;;;;0.00;0.00;;;;;;;19.77;44.69;98315.66;4981109;28;20222;-66
2023/06/14 07:25:09;;;;;;;0.00;0.00;;;;;;;20.03;44.19;98315.66;4984774;28;20263;-66
2023/06/14 07:27:36;;;;;;;0.00;0.00;;;;;;;20.29;45.31;98319.03;4981992;28;20220;-66
2023/06/14 07:30:04;;;;;;;0.00;0.00;;;;;;;20.43;43.66;98311.75;4985934;28;20236;-66
2023/06/14 07:32:31;;;;;;;0.00;0.00;;;;;;;20.45;43.79;98310.47;4985666;28;20721;-66
2023/06/14 07:34:58;;;;;;;0.00;0.00;;;;;;;20.45;43.79;98315.78;4985584;28;20221;-66
2023/06/14 07:37:25;;;;;;;0.00;0.00;;;;;;;20.53;46.74;98308.56;4988534;28;20899;-66
2023/06/14 07:39:51;;;;;;;0.00;0.00;;;;;;;20.69;46.38;98307.94;4985239;28;20797;-66
2023/06/14 07:42:18;;;;;;;0.00;0.00;;;;;;;20.94;44.21;98307.81;4986575;28;20240;-66
2023/06/14 07:44:44;;;;;;;0.00;0.00;;;;;;;20.91;43.28;98308.25;4984715;28;20238;-66
2023/06/14 07:47:11;;;;;;;0.00;0.00;;;;;;;21.15;44.46;98296.91;4986135;28;20239;-66
2023/06/14 07:49:39;;;;;;;0.00;0.00;;;;;;;21.32;44.54;98305.81;4983233;28;20681;-66
2023/06/14 07:52:07;;;;;;;0.00;0.00;;;;;;;21.45;43.60;98306.63;4978008;28;20234;-66
2023/06/14 07:54:33;;;;;;;0.00;0.00;;;;;;;21.63;42.52;98314.53;4984139;28;20315;-66
2023/06/14 07:57:00;;;;;;;0.00;0.00;;;;;;;21.63;35.63;98316.38;4987901;28;20248;-66
2023/06/14 07:59:27;;;;;;;0.00;0.00;;;;;;;21.83;35.26;98313.38;4987878;28;20323;-65
2023/06/14 08:01:54;;;;;;;0.00;0.00;;;;;;;21.95;35.03;98316.00;4982445;28;20328;-66
2023/06/14 08:04:20;;;;;;;0.00;0.00;;;;;;;21.93;35.69;98318.09;4987020;28;20282;-66
2023/06/14 08:06:51;;;;;;;0.00;0.00;;;;;;;22.09;35.74;98308.63;4983153;28;20243;-67
2023/06/14 08:09:17;;;;;;;0.00;0.00;;;;;;;21.92;35.91;98319.94;4987610;28;20228;-65
2023/06/14 08:11:44;;;;;;;0.00;0.00;;;;;;;22.15;35.70;98320.16;4983430;28;20338;-66
2023/06/14 08:14:10;;;;;;;0.00;0.00;;;;;;;22.16;36.73;98319.09;4987372;28;20705;-65
2023/06/14 08:16:37;;;;;;;0.00;0.00;;;;;;;22.39;36.90;98328.88;4982831;28;20252;-65
2023/06/14 08:19:04;;;;;;;0.00;0.00;;;;;;;22.50;36.88;98322.75;4987609;28;20221;-66
2023/06/14 08:21:33;;;;;;;0.00;0.00;;;;;;;22.45;36.05;98325.28;4987245;28;20234;-65
2023/06/14 08:24:01;;;;;;;0.00;0.00;;;;;;;22.44;35.84;98325.53;4984976;28;20259;-65
2023/06/14 08:26:28;;;;;;;0.00;0.00;;;;;;;22.58;35.46;98326.91;4987717;28;21209;-64
2023/06/14 08:28:57;;;;;;;0.00;0.00;;;;;;;22.66;35.08;98323.84;4976583;28;20231;-65
2023/06/14 08:31:24;;;;;;;0.00;0.00;;;;;;;22.79;35.71;98327.28;4985813;28;20248;-64
2023/06/14 08:33:57;;;;;;;0.00;0.00;;;;;;;22.75;36.66;98329.59;4984189;28;20243;-64
2023/06/14 08:36:23;;;;;;;0.00;0.00;;;;;;;22.78;35.41;98334.44;4988234;28;20236;-65
2023/06/14 08:38:57;;;;;;;0.00;0.00;;;;;;;22.76;36.67;98331.22;4984462;28;20233;-65
2023/06/14 08:41:25;;;;;;;0.00;0.00;;;;;;;22.80;36.08;98332.34;4987006;28;20237;-65
2023/06/14 08:43:58;;;;;;;0.00;0.00;;;;;;;22.79;36.96;98336.06;4975364;28;20237;-65
2023/06/14 08:46:27;;;;;;;0.00;0.00;;;;;;;22.76;36.71;98333.88;4984660;28;20687;-64
2023/06/14 08:48:57;;;;;;;0.00;0.00;;;;;;;22.71;37.18;98328.44;4983935;28;20229;-64
2023/06/14 08:51:26;;;;;;;0.00;0.00;;;;;;;22.61;37.01;98333.56;4986313;28;20300;-65
2023/06/14 08:53:57;;;;;;;0.00;0.00;;;;;;;22.74;37.65;98332.50;4983541;28;20235;-64
2023/06/14 08:56:27;;;;;;;0.00;0.00;;;;;;;22.77;37.37;98332.81;4985962;28;20239;-65
2023/06/14 08:59:01;;;;;;;0.00;0.00;;;;;;;22.55;37.95;98340.66;4983957;28;20719;-64
2023/06/14 09:01:27;;;;;;;0.00;0.00;;;;;;;22.49;37.71;98339.75;4984377;28;20238;-64
2023/06/14 09:03:57;;;;;;;0.00;0.00;;;;;;;22.53;38.38;98338.22;4983964;28;20309;-65
2023/06/14 09:06:24;;;;;;;0.00;0.00;;;;;;;22.66;37.99;98336.34;4983738;28;20221;-65
2023/06/14 09:08:57;;;;;;;0.00;0.00;;;;;;;22.74;37.83;98335.97;4982473;28;20815;-65
2023/06/14 09:11:25;;;;;;;0.00;0.00;;;;;;;22.85;37.32;98344.94;4986157;28;20655;-65
2023/06/14 09:13:58;;;;;;;0.00;0.00;;;;;;;22.96;37.28;98337.94;4983674;28;20708;-65
2023/06/14 09:16:26;;;;;;;0.00;0.00;;;;;;;22.95;35.00;98333.69;4984519;28;20231;-65
2023/06/14 09:18:57;;;;;;;0.00;0.00;;;;;;;23.02;35.21;98333.50;4983282;28;20240;-65
2023/06/14 09:21:23;;;;;;;0.00;0.00;;;;;;;23.24;35.63;98342.47;4985895;28;20249;-65
2023/06/14 09:24:15;;;;;;;0.00;0.00;;;;;;;23.02;34.70;98333.50;4978269;28;20244;-65
2023/06/14 09:26:42;;;;;;;0.00;0.00;;;;;;;23.24;35.24;98347.00;4982850;28;20753;-65
2023/06/14 09:29:10;;;;;;;0.00;0.00;;;;;;;23.37;31.54;98351.97;4986217;28;20245;-65
2023/06/14 09:31:37;;;;;;;0.00;0.00;;;;;;;23.37;33.08;98341.31;4980210;28;20233;-65
2023/06/14 09:34:04;;;;;;;0.00;0.00;;;;;;;23.47;33.65;98348.69;4986090;28;20229;-65
2023/06/14 09:36:33;;;;;;;0.00;0.00;;;;;;;23.58;33.17;98349.63;4986456;28;20693;-65
2023/06/14 09:39:05;;;;;;;0.00;0.00;;;;;;;23.64;31.64;98354.00;4983824;28;20230;-65
2023/06/14 09:41:33;;;;;;;0.00;0.00;;;;;;;23.39;30.29;98354.41;4982287;28;20750;-65
2023/06/14 09:44:02;;;;;;;0.00;0.00;;;;;;;23.68;32.38;98362.31;4986395;28;20384;-65
2023/06/14 09:46:31;;;;;;;0.00;0.00;;;;;;;23.63;32.15;98360.38;4984618;28;20685;-65
2023/06/14 09:48:58;;;;;;;0.00;0.00;;;;;;;23.69;33.02;98371.94;4983883;28;20578;-65
2023/06/14 09:51:26;;;;;;;0.00;0.00;;;;;;;23.84;32.91;98358.03;4985484;28;20237;-65
2023/06/14 09:54:00;;;;;;;0.00;0.00;;;;;;;23.76;31.33;98361.91;4983406;28;20230;-65
2023/06/14 09:56:29;;;;;;;0.00;0.00;;;;;;;23.80;32.54;98364.88;4985655;28;20239;-65
2023/06/14 09:58:59;;;;;;;0.00;0.00;;;;;;;23.74;32.27;98366.69;4982572;28;21530;-65
2023/06/14 10:01:27;;;;;;;0.00;0.00;;;;;;;23.81;31.38;98361.19;4984374;28;20691;-64
2023/06/14 10:04:04;;;;;;;0.00;0.00;;;;;;;23.73;30.26;98355.22;4983660;28;20381;-65
2023/06/14 10:06:31;;;;;;;0.00;0.00;;;;;;;23.67;30.58;98358.84;4985226;28;20209;-65
2023/06/14 10:09:00;;;;;;;0.00;0.00;;;;;;;23.66;30.60;98362.56;4982257;28;20236;-65
2023/06/14 10:11:27;;;;;;;0.00;0.00;;;;;;;23.68;30.47;98357.00;4984643;28;20244;-65
2023/06/14 10:13:58;;;;;;;0.00;0.00;;;;;;;23.63;30.24;98357.72;4983466;28;20233;-64
2023/06/14 10:16:31;;;;;;;0.00;0.00;;;;;;;23.53;30.60;98353.03;4983667;28;20608;-64
2023/06/14 10:19:08;;;;;;;0.00;0.00;;;;;;;23.77;31.19;98357.38;4982387;28;20546;-64
2023/06/14 10:21:48;;;;;;;0.00;0.00;;;;;;;23.87;31.37;98357.53;4982771;28;20573;-64
2023/06/14 10:24:18;;;;;;;0.00;0.00;;;;;;;23.82;31.90;98354.78;4985098;28;20233;-64
2023/06/14 10:26:52;;;;;;;0.00;0.00;;;;;;;23.77;32.61;98360.06;4981633;28;20217;-64
2023/06/14 10:29:19;;;;;;;10.27;5.10;;;;;;;23.59;32.74;98348.59;4984929;28;20299;-65
2023/06/14 10:31:47;;;;;;;8.60;5.27;;;;;;;23.61;32.61;98359.03;4980030;28;20335;-65
2023/06/14 10:34:26;;;;;;;6.37;4.60;;;;;;;23.88;31.30;98359.94;4983851;28;20648;-65
2023/06/14 10:37:07;;;;;;;8.70;4.43;;;;;;;23.96;31.12;98358.72;4981957;28;20233;-65
2023/06/14 10:39:39;;;;;;;7.63;4.70;;;;;;;23.91;30.03;98363.16;4981573;28;20232;-66
2023/06/14 10:42:06;;;;;;;9.07;4.60;;;;;;;24.03;30.20;98363.91;4983231;28;20240;-66
2023/06/14 10:44:45;;;;;;;9.33;4.87;;;;;;;24.11;29.87;98357.38;4981417;28;20227;-66
2023/06/14 10:47:22;;;;;;;6.97;4.47;;;;;;;23.97;30.88;98352.34;4982837;28;20311;-66
2023/06/14 10:49:52;;;;;;;8.47;4.30;;;;;;;24.04;30.83;98368.19;4981686;28;20233;-66
2023/06/14 10:52:22;;;;;;;6.43;4.33;;;;;;;24.01;31.82;98358.00;4985065;28;20237;-66
2023/06/14 10:55:09;;;;;;;7.00;4.37;;;;;;;24.07;29.42;98364.25;4980605;28;20248;-66
2023/06/14 10:57:36;;;;;;;11.33;4.60;;;;;;;24.21;29.72;98364.69;4981811;28;20320;-66
2023/06/14 11:00:12;;;;;;;8.87;4.63;;;;;;;23.79;31.33;98353.44;4984074;28;20225;-66
2023/06/14 11:03:23;;;;;;;9.87;4.70;;;;;;;24.10;32.16;98359.22;4969351;28;20345;-66
2023/06/14 11:05:53;;;;;;;9.30;4.47;;;;;;;23.99;31.67;98354.78;4983974;28;20224;-66
2023/06/14 11:08:47;;;;;;;6.53;4.50;;;;;;;24.05;32.04;98353.81;4989052;28;20237;-66
2023/06/14 11:11:14;;;;;;;5.47;4.00;;;;;;;24.07;30.65;98356.25;4985118;28;20237;-66
2023/06/14 11:13:45;;;;;;;8.83;4.47;;;;;;;24.28;30.78;98368.78;4985903;28;20237;-66
2023/06/14 11:16:12;;;;;;;10.07;4.50;;;;;;;24.03;30.48;98369.25;4987113;28;20268;-66
2023/06/14 11:18:39;;;;;;;5.03;4.23;;;;;;;24.06;31.39;98367.97;4985857;28;20320;-66
2023/06/14 11:21:08;;;;;;;11.50;4.47;;;;;;;24.28;31.63;98360.78;4988696;28;20241;-66
2023/06/14 11:23:35;;;;;;;7.80;4.60;;;;;;;24.42;31.26;98350.56;4985289;28;20223;-66
2023/06/14 11:26:02;;;;;;;7.03;4.50;;;;;;;24.25;31.15;98350.63;4988270;28;20655;-66
2023/06/14 11:28:37;;;;;;;5.60;4.23;;;;;;;24.23;30.22;98366.06;4988547;28;20289;-66
2023/06/14 11:31:05;;;;;;;6.67;4.20;;;;;;;23.99;31.62;98363.59;4984276;28;20276;-64
2023/06/14 11:33:31;;;;;;;9.30;4.70;;;;;;;24.28;30.90;98359.97;4987283;28;20240;-64
2023/06/14 11:35:58;;;;;;;5.67;3.80;;;;;;;24.34;30.40;98355.53;4984719;28;20229;-64
2023/06/14 11:38:27;;;;;;;6.63;4.40;;;;;;;24.53;30.51;98353.34;4987640;28;20324;-65
2023/06/14 11:40:53;;;;;;;9.27;4.30;;;;;;;24.45;30.33;98354.56;4984466;28;20248;-65
2023/06/14 11:43:20;;;;;;;11.30;4.33;;;;;;;24.51;31.11;98345.56;4986733;28;20237;-66